createdAt,value
2018-12-22T00:01:44.671Z,99736.59
2018-12-22T00:03:54.937Z,99751.31
2018-12-22T00:06:02.656Z,99743.53
2018-12-22T00:08:07.783Z,99746.80
2018-12-22T00:10:19.738Z,99747.02
2018-12-22T00:12:28.250Z,99747.16
2018-12-22T00:14:35.970Z,99751.97
2018-12-22T00:17:04.103Z,99743.33
2018-12-22T00:19:05.565Z,99748.63
2018-12-22T00:21:13.042Z,99753.87
2018-12-22T00:23:24.694Z,99757.65
2018-12-22T00:25:32.918Z,99762.02
2018-12-22T00:27:35.743Z,99760.66
2018-12-22T00:29:43.124Z,99747.61
2018-12-22T00:31:54.992Z,99759.72
2018-12-22T00:34:09.289Z,99752.71
2018-12-22T00:36:10.740Z,99761.91
2018-12-22T00:38:18.909Z,99766.63
2018-12-22T00:40:28.542Z,99751.43
2018-12-22T00:42:36.213Z,99771.98
2018-12-22T00:44:40.924Z,99768.02
2018-12-22T00:46:50.611Z,99776.71
2018-12-22T00:51:30.296Z,99780.48
2018-12-22T00:54:03.279Z,99787.95
2018-12-22T00:56:10.993Z,99782.30
2018-12-22T00:58:15.891Z,99799.23
2018-12-22T01:00:20.760Z,99798.52
2018-12-22T01:02:26.208Z,99807.31
2018-12-22T01:07:26.391Z,99807.61
2018-12-22T01:09:31.338Z,99810.58
2018-12-22T01:11:40.424Z,99815.03
2018-12-22T01:13:41.960Z,99812.08
2018-12-22T01:15:43.442Z,99820.12
2018-12-22T01:17:44.903Z,99830.63
2018-12-22T01:19:46.389Z,99836.37
2018-12-22T01:21:47.747Z,99839.47
2018-12-22T01:23:49.200Z,99837.48
2018-12-22T01:25:50.748Z,99843.33
2018-12-22T01:27:52.186Z,99845.30
2018-12-22T01:29:53.650Z,99853.44
2018-12-22T01:32:08.500Z,99854.83
2018-12-22T01:34:10.182Z,99844.39
2018-12-22T01:36:18.291Z,99858.61
2018-12-22T01:38:21.024Z,99858.78
2018-12-22T01:40:22.504Z,99857.36
2018-12-22T01:42:24.427Z,99856.74
2018-12-22T01:44:25.940Z,99863.08
2018-12-22T01:46:27.387Z,99859.69
2018-12-22T01:48:28.866Z,99875.23
2018-12-22T01:50:30.416Z,99875.70
2018-12-22T01:52:31.871Z,99877.91
2018-12-22T01:54:33.318Z,99881.34
2018-12-22T01:56:34.790Z,99880.36
2018-12-22T01:58:36.160Z,99882.48
2018-12-22T02:00:37.590Z,99880.70
2018-12-22T02:05:17.167Z,99887.19
2018-12-22T02:07:18.626Z,99892.94
2018-12-22T02:09:20.080Z,99892.69
2018-12-22T02:11:27.861Z,99894.13
2018-12-22T02:13:29.292Z,99902.70
2018-12-22T02:15:30.703Z,99892.98
2018-12-22T02:17:38.534Z,99897.05
2018-12-22T02:19:39.959Z,99906.57
2018-12-22T02:21:41.326Z,99901.41
2018-12-22T02:23:42.835Z,99902.78
2018-12-22T02:25:44.348Z,99900.08
2018-12-22T02:27:45.767Z,99914.80
2018-12-22T02:29:47.184Z,99904.67
2018-12-22T02:31:56.219Z,99924.44
2018-12-22T02:36:33.134Z,99913.05
2018-12-22T02:38:34.547Z,99922.89
2018-12-22T02:40:35.970Z,99922.20
2018-12-22T02:42:37.627Z,99903.98
2018-12-22T02:44:39.055Z,99927.26
2018-12-22T02:46:47.143Z,99923.38
2018-12-22T02:48:48.595Z,99926.41
2018-12-22T02:50:49.995Z,99941.41
2018-12-22T02:52:51.343Z,99936.62
2018-12-22T02:54:52.775Z,99937.31
2018-12-22T02:56:54.176Z,99947.97
2018-12-22T02:58:55.622Z,99939.19
2018-12-22T03:00:57.061Z,99944.29
2018-12-22T03:02:58.483Z,99938.14
2018-12-22T03:04:59.962Z,99936.30
2018-12-22T03:07:01.444Z,99940.39
2018-12-22T03:09:04.676Z,99941.63
2018-12-22T03:11:06.130Z,99947.25
2018-12-22T03:13:07.876Z,99952.36
2018-12-22T03:15:09.337Z,99945.14
2018-12-22T03:17:10.716Z,99955.66
2018-12-22T03:19:12.179Z,99943.91
2018-12-22T03:21:13.506Z,99954.45
2018-12-22T03:23:14.960Z,99951.77
2018-12-22T03:25:16.485Z,99967.69
2018-12-22T03:27:18.198Z,99968.94
2018-12-22T03:29:19.684Z,99970.84
2018-12-22T03:31:21.176Z,99974.27
2018-12-22T03:33:22.676Z,99967.34
2018-12-22T03:35:24.111Z,99970.05
2018-12-22T03:37:25.537Z,99965.54
2018-12-22T03:39:27.014Z,99968.02
2018-12-22T03:41:28.371Z,99976.37
2018-12-22T03:43:29.736Z,99982.22
2018-12-22T03:45:31.322Z,99981.76
2018-12-22T03:47:32.749Z,99981.13
2018-12-22T03:49:34.177Z,99986.25
2018-12-22T03:51:35.678Z,99992.89
2018-12-22T03:53:37.178Z,99988.63
2018-12-22T03:55:38.612Z,99993.46
2018-12-22T03:57:40.083Z,100005.90
2018-12-22T03:59:41.522Z,99995.84
2018-12-22T04:01:43.147Z,99997.50
2018-12-22T04:03:44.678Z,99992.05
2018-12-22T04:05:46.110Z,99991.84
2018-12-22T04:07:47.555Z,99996.34
2018-12-22T04:09:49.065Z,99998.05
2018-12-22T04:11:50.488Z,100000.28
2018-12-22T04:13:51.909Z,100001.33
2018-12-22T04:15:53.376Z,100011.73
2018-12-22T04:17:54.880Z,100002.54
2018-12-22T04:19:56.309Z,100003.58
2018-12-22T04:21:57.988Z,100004.45
2018-12-22T04:23:59.553Z,100004.80
2018-12-22T04:26:01.114Z,100007.62
2018-12-22T04:28:02.645Z,100013.27
2018-12-22T04:30:04.319Z,100018.97
2018-12-22T04:32:05.760Z,100007.05
2018-12-22T04:34:07.214Z,100005.59
2018-12-22T04:36:08.674Z,100009.05
2018-12-22T04:38:10.251Z,100023.37
2018-12-22T04:40:20.391Z,100023.86
2018-12-22T04:42:21.861Z,100020.55
2018-12-22T04:44:23.305Z,100017.75
2018-12-22T04:46:24.857Z,100024.95
2018-12-22T04:48:26.440Z,100017.34
2018-12-22T04:50:27.989Z,100022.79
2018-12-22T04:52:29.482Z,100022.61
2018-12-22T04:54:30.961Z,100018.80
2018-12-22T04:56:32.330Z,100011.27
2018-12-22T04:58:33.800Z,100016.34
2018-12-22T05:00:36.149Z,100010.59
2018-12-22T05:02:37.613Z,100013.08
2018-12-22T05:04:39.081Z,100017.56
2018-12-22T05:06:47.417Z,100019.24
2018-12-22T05:08:48.860Z,100020.28
2018-12-22T05:10:50.326Z,100024.98
2018-12-22T05:12:51.810Z,100029.28
2018-12-22T05:14:53.322Z,100036.03
2018-12-22T05:16:54.860Z,100039.98
2018-12-22T05:18:56.274Z,100038.98
2018-12-22T05:20:57.737Z,100041.80
2018-12-22T05:22:59.395Z,100040.58
2018-12-22T05:25:00.867Z,100048.53
2018-12-22T05:27:02.500Z,100040.95
2018-12-22T05:29:04.108Z,100043.25
2018-12-22T05:31:05.531Z,100055.56
2018-12-22T05:33:06.982Z,100051.27
2018-12-22T05:35:08.653Z,100048.04
2018-12-22T05:37:10.082Z,100047.48
2018-12-22T05:39:11.576Z,100049.14
2018-12-22T05:41:13.052Z,100056.68
2018-12-22T05:43:14.538Z,100048.70
2018-12-22T05:45:16.018Z,100056.39
2018-12-22T05:47:23.704Z,100054.77
2018-12-22T05:49:34.055Z,100051.02
2018-12-22T05:51:35.395Z,100048.19
2018-12-22T05:53:40.112Z,100054.73
2018-12-22T05:55:47.596Z,100050.91
2018-12-22T05:57:49.170Z,100057.54
2018-12-22T05:59:50.662Z,100060.58
2018-12-22T06:01:52.136Z,100053.39
2018-12-22T06:04:06.751Z,100056.63
2018-12-22T06:06:08.178Z,100063.62
2018-12-22T06:08:17.495Z,100063.22
2018-12-22T06:10:18.968Z,100065.36
2018-12-22T06:12:20.527Z,100063.72
2018-12-22T06:14:22.260Z,100068.80
2018-12-22T06:16:40.543Z,100067.08
2018-12-22T06:18:48.314Z,100065.78
2018-12-22T06:20:56.056Z,100065.25
2018-12-22T06:23:01.101Z,100068.02
2018-12-22T06:25:09.759Z,100073.53
2018-12-22T06:27:21.505Z,100044.36
2018-12-22T06:29:24.568Z,100073.16
2018-12-22T06:31:29.770Z,100078.54
2018-12-22T06:33:31.259Z,100071.95
2018-12-22T06:35:32.813Z,100084.41
2018-12-22T06:37:40.425Z,100090.44
2018-12-22T06:39:41.889Z,100089.64
2018-12-22T06:41:43.311Z,100084.58
2018-12-22T06:43:44.754Z,100094.20
2018-12-22T06:45:46.357Z,100092.91
2018-12-22T06:47:47.762Z,100096.27
2018-12-22T06:49:49.250Z,100097.89
2018-12-22T06:51:50.657Z,100104.63
2018-12-22T06:53:52.088Z,100097.41
2018-12-22T06:55:53.825Z,100095.63
2018-12-22T06:57:56.263Z,100105.06
2018-12-22T06:59:57.687Z,100105.94
2018-12-22T07:01:59.158Z,100108.05
2018-12-22T07:04:00.605Z,100113.75
2018-12-22T07:06:02.120Z,100115.48
2018-12-22T07:08:03.582Z,100111.93
2018-12-22T07:10:07.355Z,100113.73
2018-12-22T07:12:08.850Z,100106.54
2018-12-22T07:14:10.275Z,100110.20
2018-12-22T07:16:11.747Z,100114.25
2018-12-22T07:18:13.203Z,100115.52
2018-12-22T07:20:14.625Z,100108.64
2018-12-22T07:22:16.088Z,100122.66
2018-12-22T07:24:17.549Z,100126.47
2018-12-22T07:26:18.977Z,100123.40
2018-12-22T07:28:20.422Z,100122.36
2018-12-22T07:30:26.095Z,100120.75
2018-12-22T07:32:25.471Z,100121.73
2018-12-22T07:34:26.922Z,100126.98
2018-12-22T07:36:28.386Z,100124.94
2018-12-22T07:38:29.840Z,100122.20
2018-12-22T07:40:31.330Z,100130.13
2018-12-22T07:42:32.763Z,100128.20
2018-12-22T07:44:34.213Z,100120.45
2018-12-22T07:46:36.007Z,100123.91
2018-12-22T07:48:37.481Z,100121.55
2018-12-22T07:50:38.914Z,100122.95
2018-12-22T07:52:40.383Z,100130.77
2018-12-22T07:54:43.744Z,100129.79
2018-12-22T07:56:45.380Z,100125.30
2018-12-22T07:58:46.695Z,100128.57
2018-12-22T08:00:48.358Z,100123.97
2018-12-22T08:02:49.799Z,100126.52
2018-12-22T08:04:51.238Z,100123.05
2018-12-22T08:06:52.706Z,100128.05
2018-12-22T08:08:54.191Z,100126.13
2018-12-22T08:10:55.602Z,100128.04
2018-12-22T08:12:57.322Z,100130.02
2018-12-22T08:14:58.788Z,100129.33
2018-12-22T08:17:00.298Z,100132.67
2018-12-22T08:19:01.825Z,100139.53
2018-12-22T08:21:03.346Z,100135.55
2018-12-22T08:23:04.840Z,100136.73
2018-12-22T08:25:06.492Z,100142.35
2018-12-22T08:27:14.767Z,100143.66
2018-12-22T08:29:16.452Z,100146.87
2018-12-22T08:31:17.906Z,100152.73
2018-12-22T08:33:19.384Z,100160.72
2018-12-22T08:35:21.068Z,100168.20
2018-12-22T08:37:22.534Z,100173.31
2018-12-22T08:39:24.034Z,100177.28
2018-12-22T08:41:25.558Z,100188.20
2018-12-22T08:43:26.995Z,100188.63
2018-12-22T08:45:28.462Z,100197.45
2018-12-22T08:47:29.819Z,100197.30
2018-12-22T08:49:31.218Z,100196.87
2018-12-22T08:51:32.587Z,100199.13
2018-12-22T08:53:34.019Z,100201.67
2018-12-22T08:55:35.482Z,100203.70
2018-12-22T08:57:37.954Z,100205.72
2018-12-22T08:59:39.444Z,100211.88
2018-12-22T09:01:40.905Z,100209.79
2018-12-22T09:03:42.347Z,100214.94
2018-12-22T09:05:43.799Z,100220.58
2018-12-22T09:07:45.302Z,100212.55
2018-12-22T09:09:46.778Z,100215.16
2018-12-22T09:11:48.268Z,100216.34
2018-12-22T09:13:49.707Z,100220.88
2018-12-22T09:15:51.310Z,100221.40
2018-12-22T09:17:52.784Z,100221.62
2018-12-22T09:19:54.607Z,100228.81
2018-12-22T09:21:56.046Z,100229.81
2018-12-22T09:23:57.475Z,100224.91
2018-12-22T09:25:58.969Z,100224.22
2018-12-22T09:28:00.419Z,100224.91
2018-12-22T09:30:05.165Z,100230.97
2018-12-22T09:32:06.516Z,100231.75
2018-12-22T09:34:13.201Z,100228.01
2018-12-22T09:36:11.644Z,100232.11
2018-12-22T09:38:13.140Z,100225.95
2018-12-22T09:40:14.611Z,100226.66
2018-12-22T09:42:15.932Z,100234.00
2018-12-22T09:44:17.393Z,100238.69
2018-12-22T09:46:18.802Z,100239.88
2018-12-22T09:48:20.123Z,100243.22
2018-12-22T09:50:21.565Z,100222.55
2018-12-22T09:52:23.064Z,100246.56
2018-12-22T09:54:24.541Z,100238.13
2018-12-22T09:56:25.857Z,100243.61
2018-12-22T09:58:27.333Z,100246.97
2018-12-22T10:00:28.734Z,100241.55
2018-12-22T10:02:30.178Z,100247.52
2018-12-22T10:04:31.632Z,100246.28
2018-12-22T10:06:33.130Z,100260.23
2018-12-22T10:08:34.586Z,100258.08
2018-12-22T10:10:36.161Z,100258.34
2018-12-22T10:12:37.606Z,100258.75
2018-12-22T10:14:38.983Z,100264.55
2018-12-22T10:16:40.481Z,100261.53
2018-12-22T10:18:41.994Z,100270.55
2018-12-22T10:20:43.405Z,100266.61
2018-12-22T10:22:44.713Z,100271.53
2018-12-22T10:24:46.149Z,100270.20
2018-12-22T10:26:47.587Z,100272.61
2018-12-22T10:28:49.034Z,100278.75
2018-12-22T10:30:50.462Z,100284.21
2018-12-22T10:32:51.956Z,100282.82
2018-12-22T10:34:53.615Z,100286.96
2018-12-22T10:36:55.086Z,100289.97
2018-12-22T10:38:56.489Z,100296.42
2018-12-22T10:40:57.942Z,100302.46
2018-12-22T10:42:59.470Z,100301.20
2018-12-22T10:45:00.886Z,100302.87
2018-12-22T10:47:02.425Z,100310.06
2018-12-22T10:49:04.030Z,100317.34
2018-12-22T10:51:05.475Z,100315.45
2018-12-22T10:53:06.879Z,100327.80
2018-12-22T10:55:08.850Z,100334.07
2018-12-22T10:57:10.297Z,100333.48
2018-12-22T10:59:11.767Z,100341.75
2018-12-22T11:01:13.158Z,100342.24
2018-12-22T11:03:14.619Z,100346.34
2018-12-22T11:05:17.114Z,100351.41
2018-12-22T11:07:18.530Z,100352.57
2018-12-22T11:09:19.967Z,100353.86
2018-12-22T11:11:21.381Z,100353.72
2018-12-22T11:13:22.903Z,100362.81
2018-12-22T11:15:24.333Z,100363.81
2018-12-22T11:17:25.814Z,100372.98
2018-12-22T11:19:27.255Z,100377.97
2018-12-22T11:21:28.710Z,100381.83
2018-12-22T11:23:30.252Z,100382.55
2018-12-22T11:25:31.691Z,100389.77
2018-12-22T11:27:33.118Z,100392.98
2018-12-22T11:29:35.015Z,100400.45
2018-12-22T11:31:36.449Z,100396.22
2018-12-22T11:33:37.946Z,100400.23
2018-12-22T11:35:39.442Z,100395.86
2018-12-22T11:37:40.801Z,100406.78
2018-12-22T11:39:42.266Z,100401.30
2018-12-22T11:41:43.723Z,100403.63
2018-12-22T11:43:45.178Z,100407.70
2018-12-22T11:45:46.761Z,100410.20
2018-12-22T11:47:50.422Z,100417.89
2018-12-22T11:49:51.915Z,100420.04
2018-12-22T11:51:53.295Z,100419.58
2018-12-22T11:53:54.767Z,100427.52
2018-12-22T11:55:56.211Z,100436.60
2018-12-22T11:57:57.546Z,100443.13
2018-12-22T11:59:59.262Z,100444.27
2018-12-22T12:02:09.297Z,100454.17
2018-12-22T12:04:04.328Z,100461.27
2018-12-22T12:06:05.827Z,100466.20
2018-12-22T12:08:07.254Z,100457.09
2018-12-22T12:10:09.089Z,100475.86
2018-12-22T12:12:10.585Z,100470.06
2018-12-22T12:14:12.067Z,100472.20
2018-12-22T12:16:17.041Z,100494.69
2018-12-22T12:18:41.392Z,100494.44
2018-12-22T12:20:42.827Z,100503.71
2018-12-22T12:22:44.324Z,100512.03
2018-12-22T12:24:46.130Z,100508.01
2018-12-22T12:26:47.586Z,100513.57
2018-12-22T12:28:49.041Z,100523.95
2018-12-22T12:30:50.506Z,100520.19
2018-12-22T12:32:52.038Z,100531.77
2018-12-22T12:34:53.480Z,100540.77
2018-12-22T12:36:54.933Z,100551.55
2018-12-22T12:38:56.408Z,100559.06
2018-12-22T12:40:57.946Z,100559.55
2018-12-22T12:42:59.381Z,100568.15
2018-12-22T12:45:01.163Z,100561.67
2018-12-22T12:47:03.162Z,100564.72
2018-12-22T12:49:04.501Z,100571.12
2018-12-22T12:51:06.008Z,100579.27
2018-12-22T12:53:09.709Z,100574.36
2018-12-22T12:55:11.105Z,100575.11
2018-12-22T12:57:12.574Z,100580.84
2018-12-22T12:59:14.248Z,100581.98
2018-12-22T13:01:15.829Z,100582.69
2018-12-22T13:03:17.308Z,100587.82
2018-12-22T13:05:18.806Z,100589.16
2018-12-22T13:07:20.158Z,100595.68
2018-12-22T13:09:21.721Z,100598.23
2018-12-22T13:11:23.495Z,100597.99
2018-12-22T13:13:32.763Z,100605.86
2018-12-22T13:15:34.326Z,100607.77
2018-12-22T13:17:35.949Z,100614.73
2018-12-22T13:19:37.541Z,100620.30
2018-12-22T13:21:38.986Z,100625.84
2018-12-22T13:23:40.667Z,100632.02
2018-12-22T13:25:42.104Z,100642.04
2018-12-22T13:27:43.516Z,100639.59
2018-12-22T13:29:44.996Z,100645.14
2018-12-22T13:31:46.603Z,100651.27
2018-12-22T13:33:48.027Z,100658.52
2018-12-22T13:35:49.651Z,100662.96
2018-12-22T13:37:51.106Z,100668.97
2018-12-22T13:39:52.575Z,100669.02
2018-12-22T13:41:54.083Z,100671.88
2018-12-22T13:43:55.546Z,100678.63
2018-12-22T13:45:56.974Z,100684.66
2018-12-22T13:47:58.649Z,100692.62
2018-12-22T13:50:00.776Z,100694.52
2018-12-22T13:52:02.286Z,100694.53
2018-12-22T13:54:03.760Z,100698.92
2018-12-22T13:56:05.352Z,100701.20
2018-12-22T13:58:06.804Z,100709.69
2018-12-22T14:00:13.641Z,100713.18
2018-12-22T14:02:18.292Z,100718.95
2018-12-22T14:04:18.759Z,100728.73
2018-12-22T14:06:20.335Z,100732.97
2018-12-22T14:08:21.830Z,100740.88
2018-12-22T14:10:23.266Z,100751.10
2018-12-22T14:12:24.745Z,100757.84
2018-12-22T14:14:26.547Z,100759.06
2018-12-22T14:16:32.007Z,100764.14
2018-12-22T14:18:38.903Z,100775.59
2018-12-22T14:20:40.382Z,100775.41
2018-12-22T14:22:42.026Z,100787.41
2018-12-22T14:24:43.509Z,100789.27
2018-12-22T14:26:46.373Z,100790.93
2018-12-22T14:28:48.126Z,100798.21
2018-12-22T14:30:50.223Z,100796.00
2018-12-22T14:32:51.778Z,100805.80
2018-12-22T14:34:53.432Z,100804.88
2018-12-22T14:36:54.909Z,100813.09
2018-12-22T14:38:56.737Z,100810.59
2018-12-22T14:40:58.303Z,100816.35
2018-12-22T14:42:59.739Z,100820.30
2018-12-22T14:45:01.192Z,100828.92
2018-12-22T14:47:03.368Z,100835.34
2018-12-22T14:49:04.756Z,100835.70
2018-12-22T14:51:06.374Z,100849.72
2018-12-22T14:53:07.850Z,100849.95
2018-12-22T14:55:11.007Z,100858.27
2018-12-22T14:57:12.498Z,100862.81
2018-12-22T14:59:14.054Z,100865.62
2018-12-22T15:01:15.482Z,100866.03
2018-12-22T15:03:17.041Z,100867.17
2018-12-22T15:05:18.602Z,100872.42
2018-12-22T15:07:20.145Z,100874.62
2018-12-22T15:09:21.745Z,100878.81
2018-12-22T15:11:23.145Z,100873.41
2018-12-22T15:13:24.576Z,100873.00
2018-12-22T15:15:25.999Z,100878.46
2018-12-22T15:17:27.658Z,100884.34
2018-12-22T15:19:29.329Z,100882.94
2018-12-22T15:21:30.793Z,100885.06
2018-12-22T15:23:32.342Z,100886.81
2018-12-22T15:25:33.684Z,100883.80
2018-12-22T15:27:35.123Z,100894.54
2018-12-22T15:29:36.578Z,100897.13
2018-12-22T15:31:38.040Z,100900.77
2018-12-22T15:33:39.594Z,100903.27
2018-12-22T15:35:41.242Z,100908.36
2018-12-22T15:37:42.709Z,100912.98
2018-12-22T15:39:44.067Z,100926.28
2018-12-22T15:41:45.878Z,100924.25
2018-12-22T15:43:47.313Z,100932.47
2018-12-22T15:45:48.782Z,100937.80
2018-12-22T15:47:50.306Z,100941.92
2018-12-22T15:49:51.811Z,100934.33
2018-12-22T15:51:53.251Z,100938.31
2018-12-22T15:53:54.730Z,100943.41
2018-12-22T15:55:56.143Z,100944.92
2018-12-22T15:57:57.613Z,100942.48
2018-12-22T15:59:59.166Z,100937.33
2018-12-22T16:02:00.599Z,100941.75
2018-12-22T16:04:26.610Z,100942.67
2018-12-22T16:06:28.075Z,100942.81
2018-12-22T16:08:29.513Z,100948.63
2018-12-22T16:10:31.009Z,100942.23
2018-12-22T16:12:32.458Z,100939.05
2018-12-22T16:14:33.984Z,100937.38
2018-12-22T16:16:35.512Z,100938.71
2018-12-22T16:18:37.010Z,100936.83
2018-12-22T16:20:38.579Z,100940.71
2018-12-22T16:22:55.332Z,100940.59
2018-12-22T16:24:56.742Z,100946.67
2018-12-22T16:26:58.203Z,100954.53
2018-12-22T16:28:59.691Z,100949.05
2018-12-22T16:31:01.051Z,100958.52
2018-12-22T16:33:02.509Z,100956.24
2018-12-22T16:35:06.258Z,100960.26
2018-12-22T16:37:07.901Z,100956.97
2018-12-22T16:39:09.438Z,100953.30
2018-12-22T16:41:10.981Z,100959.24
2018-12-22T16:43:12.862Z,100959.12
2018-12-22T16:45:15.328Z,100961.98
2018-12-22T16:47:16.770Z,100958.19
2018-12-22T16:49:18.278Z,100953.95
2018-12-22T16:51:19.706Z,100957.48
2018-12-22T16:53:21.124Z,100954.53
2018-12-22T16:55:22.618Z,100960.59
2018-12-22T16:57:24.303Z,100965.98
2018-12-22T16:59:25.974Z,100958.75
2018-12-22T17:01:33.409Z,100963.94
2018-12-22T17:03:35.180Z,100964.81
2018-12-22T17:05:36.629Z,100962.22
2018-12-22T17:07:38.055Z,100965.05
2018-12-22T17:09:39.548Z,100967.94
2018-12-22T17:11:41.075Z,100968.31
2018-12-22T17:13:42.736Z,100969.00
2018-12-22T17:15:45.755Z,100974.05
2018-12-22T17:17:47.218Z,100971.66
2018-12-22T17:19:49.822Z,100977.38
2018-12-22T17:21:51.442Z,100974.35
2018-12-22T17:23:57.863Z,100976.27
2018-12-22T17:25:59.687Z,100980.48
2018-12-22T17:28:01.096Z,100982.55
2018-12-22T17:30:05.277Z,100981.75
2018-12-22T17:32:06.625Z,100984.36
2018-12-22T17:34:08.089Z,100981.72
2018-12-22T17:36:09.785Z,100988.02
2018-12-22T17:38:11.295Z,100988.59
2018-12-22T17:40:12.842Z,100989.72
2018-12-22T17:42:14.353Z,100991.96
2018-12-22T17:44:15.681Z,100987.30
2018-12-22T17:46:17.107Z,100996.61
2018-12-22T17:48:18.631Z,100991.88
2018-12-22T17:50:20.093Z,100991.96
2018-12-22T17:52:21.495Z,100994.88
2018-12-22T17:54:23.080Z,100992.19
2018-12-22T17:56:24.513Z,100993.59
2018-12-22T17:58:25.927Z,100993.73
2018-12-22T18:00:27.317Z,100992.69
2018-12-22T18:02:28.850Z,100991.63
2018-12-22T18:04:30.275Z,100992.61
2018-12-22T18:06:31.765Z,100989.81
2018-12-22T18:08:33.331Z,100988.78
2018-12-22T18:10:34.654Z,100995.55
2018-12-22T18:12:36.195Z,101001.00
2018-12-22T18:14:38.068Z,101001.59
2018-12-22T18:16:39.505Z,101004.13
2018-12-22T18:18:41.045Z,101003.97
2018-12-22T18:20:42.520Z,101003.25
2018-12-22T18:22:44.053Z,101004.45
2018-12-22T18:24:45.467Z,101000.68
2018-12-22T18:26:47.059Z,101010.27
2018-12-22T18:28:48.499Z,101018.92
2018-12-22T18:30:50.034Z,101017.77
2018-12-22T18:32:51.462Z,101017.02
2018-12-22T18:34:52.902Z,101018.89
2018-12-22T18:36:54.609Z,101014.97
2018-12-22T18:38:56.078Z,101019.87
2018-12-22T18:40:57.503Z,101018.27
2018-12-22T18:42:59.002Z,101021.05
2018-12-22T18:45:00.482Z,101024.95
2018-12-22T18:47:01.965Z,101029.70
2018-12-22T18:49:03.396Z,101026.02
2018-12-22T18:51:04.859Z,101027.26
2018-12-22T18:53:06.306Z,101024.05
2018-12-22T18:55:08.887Z,101027.97
2018-12-22T18:57:10.226Z,101025.19
2018-12-22T18:59:12.450Z,101020.31
2018-12-22T19:01:14.393Z,101015.40
2018-12-22T19:03:15.861Z,101014.97
2018-12-22T19:05:18.606Z,101013.66
2018-12-22T19:07:20.339Z,101012.70
2018-12-22T19:09:22.807Z,101011.99
2018-12-22T19:11:24.318Z,101008.49
2018-12-22T19:13:25.746Z,101011.79
2018-12-22T19:15:27.499Z,101019.31
2018-12-22T19:17:29.396Z,101016.78
2018-12-22T19:19:30.872Z,101016.73
2018-12-22T19:21:32.339Z,101018.61
2018-12-22T19:23:33.762Z,101018.36
2018-12-22T19:25:35.188Z,101020.28
2018-12-22T19:27:36.643Z,101017.59
2018-12-22T19:29:38.128Z,101014.59
2018-12-22T19:31:41.831Z,101019.07
2018-12-22T19:33:43.068Z,101021.53
2018-12-22T19:35:44.522Z,101023.74
2018-12-22T19:37:45.973Z,101018.02
2018-12-22T19:39:47.430Z,101019.64
2018-12-22T19:41:48.963Z,101017.75
2018-12-22T19:43:50.408Z,101016.77
2018-12-22T19:45:51.871Z,101018.08
2018-12-22T19:47:53.318Z,101007.78
2018-12-22T19:49:54.997Z,101008.76
2018-12-22T19:51:56.447Z,101010.93
2018-12-22T19:53:57.935Z,101010.34
2018-12-22T19:55:59.543Z,101009.05
2018-12-22T19:58:01.323Z,101009.66
2018-12-22T20:00:04.838Z,101004.36
2018-12-22T20:02:06.283Z,101000.91
2018-12-22T20:04:07.727Z,100998.80
2018-12-22T20:06:09.112Z,101000.68
2018-12-22T20:08:10.553Z,100993.67
2018-12-22T20:10:11.978Z,100992.59
2018-12-22T20:12:13.478Z,100997.45
2018-12-22T20:14:14.940Z,100989.73
2018-12-22T20:16:16.366Z,100997.36
2018-12-22T20:18:18.045Z,100997.50
2018-12-22T20:20:19.485Z,100994.31
2018-12-22T20:22:20.940Z,101000.02
2018-12-22T20:24:53.924Z,100999.23
2018-12-22T20:26:55.406Z,101004.52
2018-12-22T20:28:56.799Z,101006.09
2018-12-22T20:30:58.244Z,101005.16
2018-12-22T20:32:59.687Z,101004.76
2018-12-22T20:35:01.146Z,101013.10
2018-12-22T20:37:02.655Z,101012.25
2018-12-22T20:39:05.915Z,101013.17
2018-12-22T20:41:07.463Z,101015.38
2018-12-22T20:43:08.960Z,101004.94
2018-12-22T20:45:10.438Z,101014.26
2018-12-22T20:47:11.944Z,101017.72
2018-12-22T20:49:13.569Z,101016.02
2018-12-22T20:51:14.997Z,101015.16
2018-12-22T20:53:16.468Z,101017.19
2018-12-22T20:55:17.946Z,101018.57
2018-12-22T20:57:19.845Z,101013.37
2018-12-22T20:59:21.237Z,101018.66
2018-12-22T21:01:22.681Z,101019.91
2018-12-22T21:03:31.858Z,101022.42
2018-12-22T21:05:37.731Z,101013.51
2018-12-22T21:07:39.178Z,101023.40
2018-12-22T21:09:40.997Z,101039.84
2018-12-22T21:11:42.482Z,101049.25
2018-12-22T21:13:43.911Z,101017.37
2018-12-22T21:15:45.391Z,101020.56
2018-12-22T21:17:47.082Z,101032.98
2018-12-22T21:19:48.539Z,101034.77
2018-12-22T21:21:49.907Z,101034.73
2018-12-22T21:23:51.546Z,101034.87
2018-12-22T21:25:52.916Z,101044.02
2018-12-22T21:27:54.314Z,101034.13
2018-12-22T21:29:55.975Z,101046.73
2018-12-22T21:31:57.379Z,101043.28
2018-12-22T21:33:58.829Z,101041.72
2018-12-22T21:36:00.318Z,101051.36
2018-12-22T21:38:01.855Z,101051.80
2018-12-22T21:40:06.424Z,101050.31
2018-12-22T21:42:07.937Z,101062.98
2018-12-22T21:44:09.358Z,101071.50
2018-12-22T21:46:11.227Z,101068.06
2018-12-22T21:48:12.731Z,101067.83
2018-12-22T21:50:14.100Z,101066.94
2018-12-22T21:52:15.586Z,101077.95
2018-12-22T21:54:17.090Z,101080.98
2018-12-22T21:56:18.526Z,101089.08
2018-12-22T21:58:20.062Z,101101.61
2018-12-22T22:00:21.524Z,101102.45
2018-12-22T22:02:23.006Z,101107.22
2018-12-22T22:04:24.733Z,101112.86
2018-12-22T22:06:26.116Z,101114.51
2018-12-22T22:08:27.487Z,101121.75
2018-12-22T22:10:29.022Z,101128.77
2018-12-22T22:12:30.497Z,101130.47
2018-12-22T22:14:31.971Z,101133.62
2018-12-22T22:16:33.499Z,101142.92
2018-12-22T22:18:34.822Z,101138.33
2018-12-22T22:20:36.270Z,101139.17
2018-12-22T22:22:37.682Z,101140.52
2018-12-22T22:24:39.127Z,101141.63
2018-12-22T22:26:40.786Z,101145.55
2018-12-22T22:28:42.161Z,101149.52
2018-12-22T22:30:43.683Z,101149.26
2018-12-22T22:32:45.154Z,101154.81
2018-12-22T22:34:46.616Z,101158.63
2018-12-22T22:36:48.086Z,101158.84
2018-12-22T22:38:49.568Z,101155.54
2018-12-22T22:40:51.023Z,101158.76
2018-12-22T22:42:52.466Z,101160.33
2018-12-22T22:44:53.943Z,101160.19
2018-12-22T22:46:55.431Z,101167.92
2018-12-22T22:48:56.886Z,101167.91
2018-12-22T22:50:58.274Z,101167.41
2018-12-22T22:52:59.735Z,101173.78
2018-12-22T22:55:01.124Z,101180.17
2018-12-22T22:57:02.641Z,101175.45
2018-12-22T22:59:03.981Z,101184.00
2018-12-22T23:01:05.439Z,101184.98
2018-12-22T23:03:07.018Z,101188.47
2018-12-22T23:05:08.830Z,101200.67
2018-12-22T23:07:10.418Z,101215.85
2018-12-22T23:09:11.871Z,101209.87
2018-12-22T23:11:13.534Z,101217.14
2018-12-22T23:13:14.986Z,101214.83
2018-12-22T23:15:16.520Z,101223.26
2018-12-22T23:17:18.238Z,101226.42
2018-12-22T23:19:19.667Z,101225.15
2018-12-22T23:21:21.218Z,101224.63
2018-12-22T23:23:22.588Z,101221.77
2018-12-22T23:25:24.109Z,101227.23
2018-12-22T23:27:25.780Z,101228.27
2018-12-22T23:29:27.258Z,101227.73
2018-12-22T23:31:28.847Z,101227.98
2018-12-22T23:33:30.394Z,101234.80